Sioux Lookout Airport
CYXL : now visible

Airfield :











YOU CAN JOIN US ON...

 
LOGIN :

Register | Disclaimer

   EN    FR    IT 

 









Legend :    VFR   Marginal VFR   IFR   Intensive IFR   Very Intensive IFR
Visi :
Ceiling :
>= 8 km
>= 3000ft
5 to 8 km
1000 to 3000 ft
1500m to 5 km
500 to 1000 ft
800 to 1500m
200 to 500 ft
< 800m
< 200 ft
Symbols :   Thunderstorms  Fog  Heavy snow  Heavy precipitations  Wind > 20 kt







- Airport Elevation : 1258 ft
- IATA code : YXL


CYXL - Sioux Lookout

CURRENT METAR :
  • 230000Z 00000KT 15SM FEW030 SCT047 16/10 A3016 RMK CU1SC3 SLP225 DENSITY ALT 1400FT

EXPIRED METARs :
  • 222300Z 15003KT 070V190 15SM FEW028 BKN048 16/09 A3017 RMK CU1SC6 SLP226 DENSITY ALT 1400FT
  • 222200Z 08005KT 020V120 15SM FEW032 OVC050 16/08 A3018 RMK CU2SC6 SLP230 DENSITY ALT 1400FT

TAF TAF CYXL
Valid from the 22 at 20:00 until the 23 at 08:00 UTC


221938Z 2220/2308 VRB03KT P6SM BKN040
FM222300 VRB03KT P6SM SCT040 RMK NXT FCST BY 230200Z
No reported NOTAMs for that airfield.



MET'MAP, your aeronautical weather chart ! - Copyright ORBIFLY December 2007 - Disclaimer

ORBIFLY MET'MAP TEAM :

Programming & Development : Alexandra Zaïnal
Concept & Development : Baudouin d'Aumeries
Co-Development & Prog : Marc-Olivier Méhu
Technical & hardware support : Manuel Goepfert

Contact : metmap@orbifly.com




SOURCES & CREDITS :

   NOAA       Earth
Advisory